LGADLGSA

Guest
Details From LGAD - ANDRAVIDA
To LGSA - Khania Souda
Flight Number -
Tags generated
Created
Modified
Stats Distance 201 nm / 372 km
Max Altitude 23,500 ft / 7,163 m
Waypoints 4
Social Downloads 0
Likes 0
Share VATSIM

Download

Looking for another format? Having issues loading an existing format? Contact us
Advertisement - Login to hide

Notes

Basic altitude profile: - Ascent Rate: 2500ft/min - Ascent Speed: 250kts - Cruise Altitude: 35000ft - Cruise Speed: 420kts - Descent Rate: 1500ft/min - Descent Speed: 250kts Options: - Use NATs: yes - Use PACOTS: yes - Use low airways: yes - Use high airways: yes

Route

LGAD TRL UJ65 SOKRI LGSA

ID Type Via Altitude Latitude Longitude Leg Dist Tot Dist Heading (true) Name
O LGAD APT - 0 ft / 0 m 37.92071˚ 21.29258˚ - 0 nm - ANDRAVIDA
TRL VOR - 19,900 ft / 6,066 m 37.40275˚ 22.33963˚ 58 nm 58 nm 122° / 122° TRIPOLIS VOR-DME
SOKRI FIX UJ65 (AWY-HI) 23,500 ft / 7,163 m 36.25778˚ 23.47194˚ 87 nm 146 nm 141° / 142° -
O LGSA APT - 0 ft / 0 m 35.53159˚ 24.15118˚ 54 nm 201 nm 143° / 143° Khania Souda

Altitude Profile

Advertisement - Login to hide

Weather


0- 5 10 15 20 25 30 35+ Temperature / ° C

Clouds and Precipitation
Forecast for 2017-12-15 00:00 UTC. Updated an hour ago

Ground ~20,000 ft ~40,000 ft Winds

LGAD

Details ICAO LGAD (PYR)
Name ANDRAVIDA
Region Greece
Timezone Europe/Athens (UTC+2.0)
Stats Elevation 55 ft / 17 m (AMSL)
Location 37.920708° 21.292583°
Runways 1
Magnetic Variation 4.142° E

METAR

LGAD 142350Z 00000KT CAVOK 10/07 Q1017

Decode

TAF

Not found

Departure Runways

ID Width Length Bearing (true) Bearing (mag) Surface Threshold Offset Overrun Length
16 148 ft / 45 m 10,313 ft / 3,143 m 164.62° 160.48° Asphalt 0 ft / 0 m 75 ft / 23 m
34 148 ft / 45 m 10,313 ft / 3,143 m 344.63° 340.49° Asphalt 0 ft / 0 m 75 ft / 23 m

LGSA

Details ICAO LGSA (CHQ)
Name Khania Souda
Region Greece
Timezone Europe/Athens (UTC+2.0)
Stats Elevation 490 ft / 149 m (AMSL)
Location 35.531592° 24.151184°
Runways 1
Magnetic Variation 4.282° E

METAR

LGSA 142350Z 26017KT 9999 SCT025 15/10 Q1017

Decode

TAF

TAF LGSA 142300Z 1500/1524 27015KT 9999 SCT025 TEMPO 1500/1516 27015G25KT BECMG 1516/1518 20015KT

Decode

Destination Runways

ID Width Length Bearing (true) Bearing (mag) Surface Threshold Offset Overrun Length
11 148 ft / 45 m 10,967 ft / 3,343 m 111.40° 107.12° Asphalt 0 ft / 0 m 735 ft / 224 m
29 148 ft / 45 m 10,967 ft / 3,343 m 291.42° 287.14° Asphalt 0 ft / 0 m 900 ft / 274 m